createdAt,value
2017-02-04T00:00:51.834Z,0
2017-02-04T00:01:51.867Z,0
2017-02-04T00:02:51.868Z,0
2017-02-04T00:03:51.898Z,0
2017-02-04T00:05:51.933Z,0
2017-02-04T00:07:06.067Z,0
2017-02-04T00:07:51.967Z,0
2017-02-04T00:08:51.959Z,0
2017-02-04T00:09:51.977Z,0
2017-02-04T00:10:51.990Z,0
2017-02-04T00:12:06.562Z,0
2017-02-04T00:12:52.018Z,0
2017-02-04T00:13:52.055Z,0
2017-02-04T00:14:52.048Z,0
2017-02-04T00:16:52.090Z,0
2017-02-04T00:17:52.105Z,0
2017-02-04T00:18:52.123Z,0
2017-02-04T00:19:52.148Z,0
2017-02-04T00:22:52.190Z,0
2017-02-04T00:24:06.340Z,0
2017-02-04T00:24:52.215Z,0
2017-02-04T00:25:52.233Z,0
2017-02-04T00:26:52.251Z,0
2017-02-04T00:27:52.313Z,0
2017-02-04T00:28:51.891Z,0
2017-02-04T00:29:52.296Z,0
2017-02-04T00:30:52.311Z,0
2017-02-04T00:31:52.333Z,0
2017-02-04T00:33:52.359Z,0
2017-02-04T00:34:51.995Z,0
2017-02-04T00:35:52.398Z,0
2017-02-04T00:36:52.404Z,0
2017-02-04T00:37:52.434Z,0
2017-02-04T00:39:06.967Z,0
2017-02-04T00:39:52.456Z,0
2017-02-04T00:40:52.090Z,0
2017-02-04T00:41:52.485Z,0
2017-02-04T00:42:52.503Z,0
2017-02-04T00:44:07.048Z,0
2017-02-04T00:44:52.541Z,0
2017-02-04T00:46:07.079Z,0
2017-02-04T00:46:52.571Z,0
2017-02-04T00:47:52.580Z,0
2017-02-04T00:49:52.627Z,0
2017-02-04T00:51:07.164Z,0
2017-02-04T00:52:07.176Z,0
2017-02-04T00:52:53.013Z,0
2017-02-04T00:54:07.258Z,0
2017-02-04T00:54:52.688Z,0
2017-02-04T00:55:52.715Z,0
2017-02-04T00:56:52.727Z,0
2017-02-04T00:57:52.744Z,0
2017-02-04T00:58:52.763Z,0
2017-02-04T00:59:52.776Z,0
2017-02-04T01:00:52.793Z,0
2017-02-04T01:01:52.807Z,0
2017-02-04T01:02:52.829Z,0
2017-02-04T01:03:52.838Z,0
2017-02-04T01:04:52.470Z,0
2017-02-04T01:06:07.402Z,0
2017-02-04T01:06:52.888Z,0
2017-02-04T01:08:07.438Z,0
2017-02-04T01:09:07.450Z,0
2017-02-04T01:10:21.998Z,0
2017-02-04T01:10:52.956Z,0
2017-02-04T01:11:52.970Z,0
2017-02-04T01:13:07.520Z,0
2017-02-04T01:13:53.006Z,0
2017-02-04T01:14:52.632Z,0
2017-02-04T01:15:53.035Z,0
2017-02-04T01:16:53.051Z,0
2017-02-04T01:17:53.066Z,0
2017-02-04T01:18:53.086Z,0
2017-02-04T01:19:53.100Z,0
2017-02-04T01:20:53.111Z,0
2017-02-04T01:21:53.132Z,0
2017-02-04T01:23:07.675Z,0
2017-02-04T01:24:53.177Z,0
2017-02-04T01:26:22.257Z,0
2017-02-04T01:27:07.738Z,0
2017-02-04T01:27:53.235Z,0
2017-02-04T01:28:53.238Z,0
2017-02-04T01:29:53.261Z,0
2017-02-04T01:30:53.275Z,0
2017-02-04T01:31:53.292Z,0
2017-02-04T01:32:53.310Z,0
2017-02-04T01:33:53.329Z,0
2017-02-04T01:35:07.866Z,0
2017-02-04T01:35:52.965Z,0
2017-02-04T01:36:53.378Z,0
2017-02-04T01:37:53.388Z,0
2017-02-04T01:38:53.407Z,0
2017-02-04T01:40:07.948Z,0
2017-02-04T01:40:53.052Z,0
2017-02-04T01:42:07.594Z,0
2017-02-04T01:42:53.471Z,0
2017-02-04T01:43:53.484Z,0
2017-02-04T01:44:53.497Z,0
2017-02-04T01:45:53.515Z,0
2017-02-04T01:47:08.063Z,0
2017-02-04T01:48:07.689Z,0
2017-02-04T01:49:53.578Z,0
2017-02-04T01:50:53.597Z,0
2017-02-04T01:51:53.227Z,0
2017-02-04T01:52:53.824Z,0
2017-02-04T01:54:08.174Z,0
2017-02-04T01:54:53.656Z,0
2017-02-04T01:55:53.675Z,0
2017-02-04T01:57:22.750Z,0
2017-02-04T01:57:53.759Z,0
2017-02-04T01:59:53.737Z,0
2017-02-04T02:00:53.762Z,0
2017-02-04T02:01:53.772Z,0
2017-02-04T02:02:53.790Z,0
2017-02-04T02:03:53.797Z,0
2017-02-04T02:04:53.819Z,0
2017-02-04T02:05:53.833Z,0
2017-02-04T02:06:53.848Z,0
2017-02-04T02:09:08.416Z,0
2017-02-04T02:09:53.898Z,0
2017-02-04T02:10:53.917Z,0
2017-02-04T02:11:53.931Z,0
2017-02-04T02:12:53.953Z,0
2017-02-04T02:14:08.487Z,0
2017-02-04T02:14:53.981Z,0
2017-02-04T02:15:53.994Z,0
2017-02-04T02:16:54.010Z,0
2017-02-04T02:17:54.031Z,0
2017-02-04T02:18:54.041Z,0
2017-02-04T02:19:54.061Z,0
2017-02-04T02:20:54.075Z,0
2017-02-04T02:21:54.090Z,0
2017-02-04T02:22:54.137Z,0
2017-02-04T02:23:54.124Z,0
2017-02-04T02:24:54.137Z,0
2017-02-04T02:25:54.163Z,0
2017-02-04T02:27:08.701Z,0
2017-02-04T02:27:54.183Z,0
2017-02-04T02:29:08.727Z,0
2017-02-04T02:29:54.220Z,0
2017-02-04T02:30:54.252Z,0
2017-02-04T02:31:54.258Z,0
2017-02-04T02:32:54.270Z,0
2017-02-04T02:33:54.281Z,0
2017-02-04T02:35:08.830Z,0
2017-02-04T02:35:54.311Z,0
2017-02-04T02:36:54.328Z,0
2017-02-04T02:37:54.349Z,0
2017-02-04T02:38:54.363Z,0
2017-02-04T02:39:54.375Z,0
2017-02-04T02:40:54.398Z,0
2017-02-04T02:41:54.442Z,0
2017-02-04T02:44:08.985Z,0
2017-02-04T02:45:23.515Z,0
2017-02-04T02:45:54.495Z,0
2017-02-04T02:47:54.509Z,0
2017-02-04T02:48:54.520Z,0
2017-02-04T02:49:54.557Z,0
2017-02-04T02:50:54.553Z,0
2017-02-04T02:51:54.622Z,0
2017-02-04T02:52:54.201Z,0
2017-02-04T02:53:54.608Z,0
2017-02-04T02:54:54.619Z,0
2017-02-04T02:56:09.196Z,0
2017-02-04T02:56:54.647Z,0
2017-02-04T02:57:54.665Z,0
2017-02-04T02:59:09.507Z,0
2017-02-04T02:59:54.702Z,0
2017-02-04T03:01:23.767Z,0
2017-02-04T03:01:54.338Z,0
2017-02-04T03:02:54.740Z,0
2017-02-04T03:03:54.778Z,0
2017-02-04T03:04:54.386Z,0
2017-02-04T03:05:54.802Z,0
2017-02-04T03:06:54.803Z,0
2017-02-04T03:08:09.350Z,0
2017-02-04T03:08:54.832Z,0
2017-02-04T03:09:54.849Z,0
2017-02-04T03:11:09.399Z,0
2017-02-04T03:12:09.431Z,0
2017-02-04T03:12:54.895Z,0
2017-02-04T03:13:54.934Z,0
2017-02-04T03:14:54.969Z,0
2017-02-04T03:15:54.984Z,0
2017-02-04T03:18:09.519Z,0
2017-02-04T03:19:09.140Z,0
2017-02-04T03:19:54.621Z,0
2017-02-04T03:20:55.020Z,0
2017-02-04T03:21:54.654Z,0
2017-02-04T03:22:55.053Z,0
2017-02-04T03:23:55.109Z,0
2017-02-04T03:24:55.090Z,0
2017-02-04T03:26:09.631Z,0
2017-02-04T03:26:55.269Z,0
2017-02-04T03:27:55.135Z,0
2017-02-04T03:29:09.683Z,0
2017-02-04T03:29:55.165Z,0
2017-02-04T03:32:09.734Z,0
2017-02-04T03:32:55.219Z,0
2017-02-04T03:33:55.232Z,0
2017-02-04T03:34:55.247Z,0
2017-02-04T03:35:55.268Z,0
2017-02-04T03:36:55.283Z,0
2017-02-04T03:37:55.292Z,0
2017-02-04T03:38:55.313Z,0
2017-02-04T03:39:54.939Z,0
2017-02-04T03:41:55.370Z,0
2017-02-04T03:43:55.395Z,0
2017-02-04T03:46:09.952Z,0
2017-02-04T03:46:55.436Z,0
2017-02-04T03:48:09.982Z,0
2017-02-04T03:48:55.475Z,0
2017-02-04T03:49:55.487Z,0
2017-02-04T03:50:55.534Z,0
2017-02-04T03:51:55.517Z,0
2017-02-04T03:52:55.535Z,0
2017-02-04T03:54:09.688Z,0
2017-02-04T03:54:55.564Z,0
2017-02-04T03:55:55.193Z,0
2017-02-04T03:57:09.742Z,0
2017-02-04T03:57:55.614Z,0
2017-02-04T03:59:10.163Z,0
2017-02-04T04:00:09.781Z,0
2017-02-04T04:00:55.665Z,0
2017-02-04T04:01:55.679Z,0
2017-02-04T04:02:55.333Z,0
2017-02-04T04:04:24.768Z,0
2017-02-04T04:04:55.727Z,0
2017-02-04T04:05:55.741Z,0
2017-02-04T04:06:55.754Z,0
2017-02-04T04:08:10.304Z,0
2017-02-04T04:08:55.787Z,0
2017-02-04T04:09:55.806Z,0
2017-02-04T04:10:55.816Z,0
2017-02-04T04:11:55.061Z,0
2017-02-04T04:12:55.469Z,0
2017-02-04T04:14:10.002Z,0
2017-02-04T04:14:55.880Z,0
2017-02-04T04:15:55.894Z,0
2017-02-04T04:16:55.530Z,0
2017-02-04T04:17:55.556Z,0
2017-02-04T04:18:55.942Z,0
2017-02-04T04:20:10.101Z,0
2017-02-04T04:20:55.980Z,0
2017-02-04T04:21:56.000Z,0
2017-02-04T04:22:56.008Z,0
2017-02-04T04:23:56.023Z,0
2017-02-04T04:24:56.044Z,0
2017-02-04T04:25:56.071Z,0
2017-02-04T04:26:56.068Z,0
2017-02-04T04:28:56.101Z,0
2017-02-04T04:30:56.136Z,0
2017-02-04T04:31:56.159Z,0
2017-02-04T04:32:56.165Z,0
2017-02-04T04:33:56.202Z,0
2017-02-04T04:34:55.814Z,0
2017-02-04T04:36:09.964Z,0
2017-02-04T04:36:56.230Z,0
2017-02-04T04:37:56.251Z,0
2017-02-04T04:38:56.259Z,0
2017-02-04T04:39:56.277Z,0
2017-02-04T04:40:56.292Z,0
2017-02-04T04:41:56.304Z,0
2017-02-04T04:43:10.466Z,0
2017-02-04T04:43:55.956Z,0
2017-02-04T04:45:10.495Z,0
2017-02-04T04:45:56.375Z,0
2017-02-04T04:46:56.387Z,0
2017-02-04T04:48:10.936Z,0
2017-02-04T04:49:10.559Z,0
2017-02-04T04:50:10.576Z,0
2017-02-04T04:51:10.979Z,0
2017-02-04T04:52:25.526Z,0
2017-02-04T04:52:56.486Z,0
2017-02-04T04:53:56.500Z,0
2017-02-04T04:54:56.513Z,0
2017-02-04T04:55:56.530Z,0
2017-02-04T04:56:56.551Z,0
2017-02-04T04:57:56.559Z,0
2017-02-04T04:58:56.577Z,0
2017-02-04T04:59:56.585Z,0
2017-02-04T05:00:56.640Z,0
2017-02-04T05:02:11.199Z,0
2017-02-04T05:02:56.639Z,0
2017-02-04T05:04:11.185Z,0
2017-02-04T05:04:56.675Z,0
2017-02-04T05:06:11.214Z,0
2017-02-04T05:07:25.764Z,0
2017-02-04T05:07:56.723Z,0
2017-02-04T05:08:56.736Z,0
2017-02-04T05:09:56.365Z,0
2017-02-04T05:10:56.769Z,0
2017-02-04T05:11:56.783Z,0
2017-02-04T05:12:56.798Z,0
2017-02-04T05:13:56.816Z,0
2017-02-04T05:14:56.832Z,0
2017-02-04T05:15:56.849Z,0
2017-02-04T05:16:56.861Z,0
2017-02-04T05:17:56.906Z,0
2017-02-04T05:19:56.913Z,0
2017-02-04T05:20:56.155Z,0
2017-02-04T05:21:56.558Z,0
2017-02-04T05:23:10.712Z,0
2017-02-04T05:23:56.966Z,0
2017-02-04T05:24:56.992Z,0
2017-02-04T05:25:56.618Z,0
2017-02-04T05:26:56.633Z,0
2017-02-04T05:27:56.650Z,0
2017-02-04T05:29:11.582Z,0
2017-02-04T05:29:56.676Z,0
2017-02-04T05:30:56.695Z,0
2017-02-04T05:31:57.095Z,0
2017-02-04T05:32:56.725Z,0
2017-02-04T05:33:57.131Z,0
2017-02-04T05:36:11.694Z,0
2017-02-04T05:37:11.710Z,0
2017-02-04T05:37:57.191Z,0
2017-02-04T05:39:11.743Z,0
2017-02-04T05:40:11.752Z,0
2017-02-04T05:40:57.242Z,0
2017-02-04T05:41:57.250Z,0
2017-02-04T05:42:57.269Z,0
2017-02-04T05:43:57.294Z,0
2017-02-04T05:45:11.834Z,0
2017-02-04T05:45:57.316Z,0
2017-02-04T05:47:11.866Z,0
2017-02-04T05:47:57.353Z,0
2017-02-04T05:48:57.369Z,0
2017-02-04T05:49:57.384Z,0
2017-02-04T05:50:57.402Z,0
2017-02-04T05:51:57.416Z,0
2017-02-04T05:52:57.430Z,0
2017-02-04T05:53:57.451Z,0
2017-02-04T05:55:11.995Z,0
2017-02-04T05:55:57.477Z,0
2017-02-04T05:56:57.496Z,0
2017-02-04T05:57:57.509Z,0
2017-02-04T05:58:57.537Z,0
2017-02-04T06:00:12.074Z,0
2017-02-04T06:01:12.087Z,0
2017-02-04T06:02:12.405Z,0
2017-02-04T06:02:57.589Z,0
2017-02-04T06:03:57.220Z,0
2017-02-04T06:04:57.625Z,0
2017-02-04T06:05:57.642Z,0
2017-02-04T06:07:12.185Z,0
2017-02-04T06:07:57.722Z,0
2017-02-04T06:09:11.833Z,0
2017-02-04T06:09:57.697Z,0
2017-02-04T06:11:11.862Z,0
2017-02-04T06:11:57.730Z,0
2017-02-04T06:12:57.751Z,0
2017-02-04T06:13:57.764Z,0
2017-02-04T06:14:57.780Z,0
2017-02-04T06:15:57.799Z,0
2017-02-04T06:16:57.425Z,0
2017-02-04T06:18:12.357Z,0
2017-02-04T06:19:11.986Z,0
2017-02-04T06:19:57.861Z,0
2017-02-04T06:22:57.520Z,0
2017-02-04T06:23:57.929Z,0
2017-02-04T06:24:57.933Z,0
2017-02-04T06:27:12.498Z,0
2017-02-04T06:27:57.610Z,0
2017-02-04T06:29:12.145Z,0
2017-02-04T06:29:58.033Z,0
2017-02-04T06:30:58.040Z,0
2017-02-04T06:31:58.054Z,0
2017-02-04T06:32:58.075Z,0
2017-02-04T06:33:57.696Z,0
2017-02-04T06:34:58.100Z,0
2017-02-04T06:35:58.116Z,0
2017-02-04T06:36:58.137Z,0
2017-02-04T06:38:12.680Z,0
2017-02-04T06:38:58.195Z,0
2017-02-04T06:39:57.403Z,0
2017-02-04T06:40:58.204Z,0
2017-02-04T06:42:12.742Z,0
2017-02-04T06:42:58.226Z,0
2017-02-04T06:43:57.849Z,0
2017-02-04T06:44:57.968Z,0
2017-02-04T06:45:57.984Z,0
2017-02-04T06:46:58.292Z,0
2017-02-04T06:47:57.915Z,0
2017-02-04T06:48:57.941Z,0
2017-02-04T06:49:58.337Z,0
2017-02-04T06:50:58.385Z,0
2017-02-04T06:51:58.371Z,0
2017-02-04T06:52:58.005Z,0
2017-02-04T06:53:58.400Z,0
2017-02-04T06:55:12.944Z,0
2017-02-04T06:55:58.437Z,0
2017-02-04T06:56:58.457Z,5
2017-02-04T06:58:58.474Z,5
2017-02-04T06:59:58.496Z,5
2017-02-04T07:00:58.507Z,5
2017-02-04T07:01:58.524Z,5
2017-02-04T07:02:58.546Z,5
2017-02-04T07:03:58.555Z,5
2017-02-04T07:04:58.576Z,5
2017-02-04T07:05:58.586Z,5
2017-02-04T07:06:58.603Z,5
2017-02-04T07:07:58.232Z,5
2017-02-04T07:08:58.631Z,5
2017-02-04T07:10:13.213Z,10
2017-02-04T07:10:58.664Z,10
2017-02-04T07:12:58.699Z,10
2017-02-04T07:14:13.443Z,10
2017-02-04T07:14:58.731Z,10
2017-02-04T07:16:13.274Z,10
2017-02-04T07:16:58.764Z,10
2017-02-04T07:17:58.774Z,10
2017-02-04T07:18:58.799Z,10
2017-02-04T07:19:58.425Z,15
2017-02-04T07:21:13.363Z,15
2017-02-04T07:21:58.847Z,10
2017-02-04T07:22:58.858Z,15
2017-02-04T07:23:58.873Z,15
2017-02-04T07:24:58.886Z,15
2017-02-04T07:26:13.436Z,15
2017-02-04T07:26:58.918Z,15
2017-02-04T07:27:58.937Z,15
2017-02-04T07:30:13.532Z,15
2017-02-04T07:30:58.990Z,20
2017-02-04T07:31:58.223Z,20
2017-02-04T07:32:59.016Z,20
2017-02-04T07:33:59.036Z,20
2017-02-04T07:34:59.044Z,20
2017-02-04T07:35:59.064Z,20
2017-02-04T07:36:59.075Z,20
2017-02-04T07:37:59.097Z,20
2017-02-04T07:38:59.113Z,20
2017-02-04T07:39:59.124Z,20
2017-02-04T07:40:58.750Z,25
2017-02-04T07:41:59.158Z,25
2017-02-04T07:42:59.170Z,25
2017-02-04T07:43:59.192Z,25
2017-02-04T07:44:58.821Z,25
2017-02-04T07:46:28.278Z,25
2017-02-04T07:46:59.273Z,25
2017-02-04T07:47:59.251Z,30
2017-02-04T07:48:59.265Z,30
2017-02-04T07:49:58.898Z,25
2017-02-04T07:50:59.299Z,30
2017-02-04T07:52:13.848Z,30
2017-02-04T07:52:59.331Z,30
2017-02-04T07:53:59.349Z,30
2017-02-04T07:54:58.971Z,30
2017-02-04T07:55:59.395Z,30
2017-02-04T07:57:13.928Z,25
2017-02-04T07:57:59.410Z,30
2017-02-04T07:59:13.955Z,30
2017-02-04T08:00:13.973Z,30
2017-02-04T08:00:59.461Z,30
2017-02-04T08:02:14.003Z,35
2017-02-04T08:02:59.486Z,35
2017-02-04T08:03:59.509Z,35
2017-02-04T08:05:59.536Z,40
2017-02-04T08:06:59.550Z,40
2017-02-04T08:08:59.588Z,30
2017-02-04T08:09:59.605Z,25
2017-02-04T08:10:59.621Z,20
2017-02-04T08:11:59.627Z,20
2017-02-04T08:12:59.646Z,20
2017-02-04T08:14:14.197Z,20
2017-02-04T08:15:59.353Z,30
2017-02-04T08:17:13.856Z,40
2017-02-04T08:17:59.734Z,45
2017-02-04T08:18:59.748Z,40
2017-02-04T08:19:59.764Z,35
2017-02-04T08:20:59.780Z,35
2017-02-04T08:22:13.937Z,40
2017-02-04T08:23:14.344Z,40
2017-02-04T08:23:59.447Z,40
2017-02-04T08:24:59.837Z,45
2017-02-04T08:25:59.865Z,40
2017-02-04T08:26:59.875Z,40
2017-02-04T08:27:59.890Z,40
2017-02-04T08:29:14.439Z,45
2017-02-04T08:30:14.453Z,45
2017-02-04T08:30:59.945Z,50
2017-02-04T08:31:59.958Z,50
2017-02-04T08:32:59.963Z,50
2017-02-04T08:33:59.995Z,50
2017-02-04T08:35:00.007Z,50
2017-02-04T08:36:00.020Z,55
2017-02-04T08:37:00.041Z,60
2017-02-04T08:38:00.057Z,50
2017-02-04T08:39:00.065Z,45
2017-02-04T08:40:00.089Z,45
2017-02-04T08:41:00.111Z,45
2017-02-04T08:42:14.652Z,50
2017-02-04T08:43:00.138Z,50
2017-02-04T08:44:00.496Z,50
2017-02-04T08:45:00.166Z,55
2017-02-04T08:46:00.187Z,45
2017-02-04T08:47:00.448Z,50
2017-02-04T08:48:00.208Z,45
2017-02-04T08:49:59.861Z,35
2017-02-04T08:51:00.265Z,35
2017-02-04T08:51:59.891Z,35
2017-02-04T08:53:00.294Z,35
2017-02-04T08:54:00.309Z,35
2017-02-04T08:55:14.856Z,30
2017-02-04T08:56:14.873Z,30
2017-02-04T08:57:14.887Z,30
2017-02-04T08:58:00.377Z,30
2017-02-04T08:59:14.921Z,30
2017-02-04T09:00:00.023Z,30
2017-02-04T09:01:00.425Z,30
2017-02-04T09:02:00.441Z,30
2017-02-04T09:03:00.459Z,30
2017-02-04T09:04:00.471Z,35
2017-02-04T09:05:29.553Z,40
2017-02-04T09:06:00.507Z,40
2017-02-04T09:07:00.530Z,45
2017-02-04T09:08:00.541Z,45
2017-02-04T09:09:00.558Z,50
2017-02-04T09:10:00.569Z,55
2017-02-04T09:11:15.122Z,60
2017-02-04T09:12:00.605Z,60
2017-02-04T09:13:00.625Z,70
2017-02-04T09:14:00.639Z,75
2017-02-04T09:15:00.657Z,85
2017-02-04T09:16:00.286Z,100
2017-02-04T09:17:00.691Z,100
2017-02-04T09:18:00.701Z,80
2017-02-04T09:19:00.726Z,95
2017-02-04T09:20:15.265Z,65
2017-02-04T09:21:15.306Z,75
2017-02-04T09:22:00.774Z,75
2017-02-04T09:23:00.790Z,75
2017-02-04T09:24:00.805Z,75
2017-02-04T09:25:00.818Z,65
2017-02-04T09:26:00.835Z,65
2017-02-04T09:27:00.853Z,70
2017-02-04T09:28:00.873Z,70
2017-02-04T09:29:00.892Z,75
2017-02-04T09:30:01.054Z,80
2017-02-04T09:32:00.940Z,75
2017-02-04T09:33:00.568Z,80
2017-02-04T09:34:00.979Z,80
2017-02-04T09:35:01.002Z,75
2017-02-04T09:36:01.009Z,75
2017-02-04T09:37:30.082Z,80
2017-02-04T09:38:01.040Z,80
2017-02-04T09:39:01.053Z,85
2017-02-04T09:40:01.072Z,85
2017-02-04T09:41:15.627Z,80
2017-02-04T09:42:01.106Z,75
2017-02-04T09:43:00.734Z,75
2017-02-04T09:44:15.283Z,75
2017-02-04T09:45:01.161Z,75
2017-02-04T09:46:01.275Z,65
2017-02-04T09:47:01.196Z,80
2017-02-04T09:48:01.219Z,75
2017-02-04T09:49:01.227Z,75
2017-02-04T09:50:01.241Z,70
2017-02-04T09:51:00.873Z,75
2017-02-04T09:52:30.337Z,70
2017-02-04T09:53:01.299Z,70
2017-02-04T09:54:15.847Z,80
2017-02-04T09:55:00.937Z,75
2017-02-04T09:56:01.350Z,70
2017-02-04T09:57:01.371Z,75
2017-02-04T09:58:01.380Z,85
2017-02-04T09:59:01.401Z,75
2017-02-04T10:00:01.420Z,80
2017-02-04T10:01:01.430Z,90
2017-02-04T10:02:01.453Z,85
2017-02-04T10:03:01.476Z,85
2017-02-04T10:04:00.714Z,95
2017-02-04T10:06:16.047Z,90
2017-02-04T10:07:00.760Z,95
2017-02-04T10:08:01.570Z,90
2017-02-04T10:09:01.573Z,85
2017-02-04T10:10:01.593Z,90
2017-02-04T10:11:01.605Z,65
2017-02-04T10:12:01.628Z,65
2017-02-04T10:13:01.636Z,50
2017-02-04T10:14:01.660Z,50
2017-02-04T10:15:01.674Z,50
2017-02-04T10:16:00.923Z,45
2017-02-04T10:17:15.847Z,40
2017-02-04T10:18:01.726Z,45
2017-02-04T10:19:01.739Z,55
2017-02-04T10:20:01.766Z,60
2017-02-04T10:21:01.387Z,65
2017-02-04T10:22:01.796Z,65
2017-02-04T10:23:01.422Z,65
2017-02-04T10:24:16.364Z,90
2017-02-04T10:25:01.457Z,95
2017-02-04T10:26:01.868Z,95
2017-02-04T10:27:01.882Z,90
2017-02-04T10:28:01.898Z,80
2017-02-04T10:29:16.448Z,90
2017-02-04T10:30:16.463Z,95
2017-02-04T10:31:01.956Z,95
2017-02-04T10:34:16.146Z,90
2017-02-04T10:35:01.631Z,100
2017-02-04T10:36:01.651Z,110
2017-02-04T10:37:02.055Z,105
2017-02-04T10:38:02.071Z,100
2017-02-04T10:39:01.705Z,90
2017-02-04T10:40:30.785Z,75
2017-02-04T10:41:01.748Z,75
2017-02-04T10:42:02.140Z,70
2017-02-04T10:43:02.161Z,70
2017-02-04T10:44:01.796Z,70
2017-02-04T10:45:02.193Z,75
2017-02-04T10:46:02.218Z,95
2017-02-04T10:47:02.235Z,105
2017-02-04T10:48:02.246Z,105
2017-02-04T10:50:02.284Z,115
2017-02-04T10:51:02.309Z,115
2017-02-04T10:52:02.320Z,115
2017-02-04T10:53:16.868Z,115
2017-02-04T10:55:02.375Z,110
2017-02-04T10:56:16.530Z,110
2017-02-04T10:57:02.411Z,110
2017-02-04T10:58:02.423Z,115
2017-02-04T10:59:02.448Z,110
2017-02-04T11:00:02.460Z,110
2017-02-04T11:02:02.502Z,110
2017-02-04T11:03:17.098Z,105
2017-02-04T11:04:02.536Z,105
2017-02-04T11:05:02.851Z,110
2017-02-04T11:06:02.566Z,110
2017-02-04T11:07:02.590Z,100
2017-02-04T11:09:02.244Z,95
2017-02-04T11:10:02.989Z,95
2017-02-04T11:11:02.655Z,100
2017-02-04T11:12:31.356Z,95
2017-02-04T11:13:02.693Z,90
2017-02-04T11:14:02.718Z,85
2017-02-04T11:15:02.341Z,85
2017-02-04T11:16:02.746Z,90
2017-02-04T11:17:02.764Z,90
2017-02-04T11:18:02.777Z,85
2017-02-04T11:19:02.804Z,70
2017-02-04T11:20:02.809Z,60
2017-02-04T11:21:02.063Z,65
2017-02-04T11:22:02.853Z,65
2017-02-04T11:23:17.405Z,85
2017-02-04T11:24:02.887Z,90
2017-02-04T11:26:02.926Z,100
2017-02-04T11:27:32.002Z,95
2017-02-04T11:28:02.967Z,95
2017-02-04T11:29:02.979Z,95
2017-02-04T11:30:02.612Z,85
2017-02-04T11:31:03.017Z,85
2017-02-04T11:32:03.033Z,90
2017-02-04T11:33:17.583Z,90
2017-02-04T11:34:03.068Z,95
2017-02-04T11:35:03.086Z,100
2017-02-04T11:36:03.099Z,95
2017-02-04T11:37:03.120Z,90
2017-02-04T11:39:17.687Z,100
2017-02-04T11:40:03.172Z,95
2017-02-04T11:41:03.190Z,95
2017-02-04T11:42:03.211Z,90
2017-02-04T11:43:02.849Z,95
2017-02-04T11:45:03.262Z,80
2017-02-04T11:46:03.282Z,75
2017-02-04T11:47:03.305Z,75
2017-02-04T11:48:03.312Z,70
2017-02-04T11:49:17.873Z,65
2017-02-04T11:50:03.351Z,65
2017-02-04T11:51:03.372Z,70
2017-02-04T11:52:03.390Z,70
2017-02-04T11:53:03.412Z,80
2017-02-04T11:54:03.425Z,85
2017-02-04T11:55:17.974Z,85
2017-02-04T11:56:03.458Z,90
2017-02-04T11:59:18.041Z,100
2017-02-04T12:00:03.538Z,80
2017-02-04T12:01:18.077Z,60
2017-02-04T12:02:03.570Z,70
2017-02-04T12:03:03.586Z,80
2017-02-04T12:04:03.606Z,85
2017-02-04T12:05:03.622Z,85
2017-02-04T12:06:17.781Z,75
2017-02-04T12:07:18.183Z,80
2017-02-04T12:08:18.204Z,85
2017-02-04T12:09:03.696Z,80
2017-02-04T12:10:03.718Z,80
2017-02-04T12:11:18.260Z,90
2017-02-04T12:12:03.761Z,85
2017-02-04T12:13:18.293Z,90
2017-02-04T12:14:03.789Z,100
2017-02-04T12:15:32.860Z,100
2017-02-04T12:16:03.828Z,100
2017-02-04T12:17:03.840Z,105
2017-02-04T12:18:03.856Z,110
2017-02-04T12:19:03.875Z,115
2017-02-04T12:20:03.512Z,115
2017-02-04T12:21:03.912Z,105
2017-02-04T12:22:03.930Z,90
2017-02-04T12:23:03.950Z,80
2017-02-04T12:24:03.578Z,80
2017-02-04T12:25:03.985Z,85
2017-02-04T12:26:04.007Z,85
2017-02-04T12:27:04.021Z,75
2017-02-04T12:29:04.059Z,70
2017-02-04T12:30:04.083Z,70
2017-02-04T12:31:33.152Z,70
2017-02-04T12:32:04.114Z,75
2017-02-04T12:33:04.130Z,70
2017-02-04T12:34:04.148Z,75
2017-02-04T12:35:04.166Z,75
2017-02-04T12:36:04.187Z,80
2017-02-04T12:37:18.733Z,85
2017-02-04T12:38:04.217Z,90
2017-02-04T12:39:04.235Z,95
2017-02-04T12:40:03.875Z,100
2017-02-04T12:41:04.274Z,105
2017-02-04T12:42:04.292Z,100
2017-02-04T12:44:18.858Z,90
2017-02-04T12:45:04.363Z,80
2017-02-04T12:47:18.528Z,60
2017-02-04T12:48:04.024Z,60
2017-02-04T12:49:18.947Z,55
2017-02-04T12:50:04.448Z,55
2017-02-04T12:51:04.457Z,60
2017-02-04T12:52:04.476Z,65
2017-02-04T12:53:04.493Z,65
2017-02-04T12:54:04.511Z,70
2017-02-04T12:55:04.532Z,70
2017-02-04T12:56:04.549Z,60
2017-02-04T12:57:04.569Z,60
2017-02-04T12:58:04.585Z,60
2017-02-04T12:59:19.136Z,70
2017-02-04T13:00:04.621Z,85
2017-02-04T13:01:04.642Z,95
2017-02-04T13:02:33.718Z,100
2017-02-04T13:03:04.678Z,95
2017-02-04T13:04:04.742Z,90
2017-02-04T13:05:04.735Z,80
2017-02-04T13:06:04.736Z,65
2017-02-04T13:07:19.323Z,55
2017-02-04T13:08:19.296Z,55
2017-02-04T13:09:04.787Z,55
2017-02-04T13:10:04.805Z,60
2017-02-04T13:11:04.821Z,60
2017-02-04T13:12:04.840Z,60
2017-02-04T13:14:04.874Z,70
2017-02-04T13:15:04.896Z,70
2017-02-04T13:16:19.442Z,65
2017-02-04T13:17:04.925Z,60
2017-02-04T13:18:04.951Z,60
2017-02-04T13:19:19.493Z,60
2017-02-04T13:20:04.986Z,65
2017-02-04T13:21:05.007Z,65
2017-02-04T13:22:05.021Z,60
2017-02-04T13:23:19.577Z,60
2017-02-04T13:24:05.053Z,60
2017-02-04T13:25:04.684Z,70
2017-02-04T13:26:19.620Z,70
2017-02-04T13:27:05.113Z,65
2017-02-04T13:28:05.127Z,55
2017-02-04T13:29:05.148Z,50
2017-02-04T13:30:05.168Z,50
2017-02-04T13:31:05.191Z,50
2017-02-04T13:32:19.731Z,55
2017-02-04T13:33:05.219Z,55
2017-02-04T13:34:19.772Z,55
2017-02-04T13:35:04.876Z,55
2017-02-04T13:36:19.416Z,55
2017-02-04T13:37:04.904Z,55
2017-02-04T13:38:05.312Z,50
2017-02-04T13:39:05.329Z,50
2017-02-04T13:40:05.342Z,50
2017-02-04T13:41:05.367Z,55
2017-02-04T13:42:19.533Z,50
2017-02-04T13:43:19.931Z,50
2017-02-04T13:44:05.418Z,50
2017-02-04T13:45:05.057Z,45
2017-02-04T13:46:05.067Z,45
2017-02-04T13:47:05.084Z,50
2017-02-04T13:48:05.113Z,50
2017-02-04T13:49:05.509Z,50
2017-02-04T13:50:34.586Z,50
2017-02-04T13:51:05.553Z,50
2017-02-04T13:52:05.566Z,45
2017-02-04T13:53:05.586Z,45
2017-02-04T13:54:05.212Z,40
2017-02-04T13:55:05.231Z,40
2017-02-04T13:56:20.174Z,40
2017-02-04T13:57:05.651Z,40
2017-02-04T13:58:05.670Z,40
2017-02-04T13:59:05.689Z,45
2017-02-04T14:00:05.322Z,45
2017-02-04T14:01:20.259Z,40
2017-02-04T14:02:05.744Z,40
2017-02-04T14:03:05.380Z,40
2017-02-04T14:05:05.799Z,40
2017-02-04T14:07:05.837Z,45
2017-02-04T14:08:05.855Z,45
2017-02-04T14:09:05.483Z,40
2017-02-04T14:10:05.497Z,40
2017-02-04T14:11:05.517Z,40
2017-02-04T14:12:05.531Z,40
2017-02-04T14:13:05.940Z,40
2017-02-04T14:14:05.963Z,35
2017-02-04T14:15:05.587Z,30
2017-02-04T14:16:05.991Z,30
2017-02-04T14:17:05.621Z,30
2017-02-04T14:18:06.032Z,30
2017-02-04T14:21:05.701Z,35
2017-02-04T14:22:19.852Z,40
2017-02-04T14:23:05.734Z,35
2017-02-04T14:24:06.140Z,30
2017-02-04T14:25:05.769Z,25
2017-02-04T14:26:06.172Z,25
2017-02-04T14:27:06.189Z,35
2017-02-04T14:28:20.735Z,35
2017-02-04T14:29:06.219Z,30
2017-02-04T14:30:06.239Z,30
2017-02-04T14:32:06.280Z,30
2017-02-04T14:33:20.825Z,25
2017-02-04T14:34:06.350Z,20
2017-02-04T14:36:05.960Z,20
2017-02-04T14:37:20.895Z,25
2017-02-04T14:38:20.528Z,25
2017-02-04T14:39:20.543Z,25
2017-02-04T14:40:06.030Z,25
2017-02-04T14:41:06.437Z,25
2017-02-04T14:43:06.089Z,25
2017-02-04T14:44:06.501Z,25
2017-02-04T14:45:06.118Z,25
2017-02-04T14:46:21.062Z,20
2017-02-04T14:47:06.546Z,20
2017-02-04T14:48:21.092Z,20
2017-02-04T14:49:06.577Z,20
2017-02-04T14:50:06.597Z,20
2017-02-04T14:52:06.629Z,20
2017-02-04T14:53:05.871Z,15
2017-02-04T14:54:06.684Z,15
2017-02-04T14:55:06.298Z,20
2017-02-04T14:56:06.316Z,15
2017-02-04T14:57:06.767Z,15
2017-02-04T14:58:05.970Z,15
2017-02-04T14:59:06.748Z,15
2017-02-04T15:00:06.780Z,20
2017-02-04T15:01:06.790Z,20
2017-02-04T15:02:06.811Z,15
2017-02-04T15:03:06.434Z,15
2017-02-04T15:04:06.455Z,15
2017-02-04T15:05:06.858Z,15
2017-02-04T15:06:06.872Z,15
2017-02-04T15:07:06.897Z,15
2017-02-04T15:08:06.911Z,15
2017-02-04T15:09:35.989Z,15
2017-02-04T15:10:06.945Z,10
2017-02-04T15:11:06.577Z,10
2017-02-04T15:12:06.593Z,10
2017-02-04T15:13:06.997Z,10
2017-02-04T15:15:07.028Z,10
2017-02-04T15:16:07.048Z,10
2017-02-04T15:17:07.072Z,10
2017-02-04T15:18:07.113Z,10
2017-02-04T15:19:07.153Z,10
2017-02-04T15:20:07.153Z,10
2017-02-04T15:21:07.143Z,10
2017-02-04T15:22:07.157Z,10
2017-02-04T15:23:21.701Z,5
2017-02-04T15:25:36.264Z,5
2017-02-04T15:27:07.244Z,5
2017-02-04T15:28:06.873Z,5